createdAt,value
2023-03-20T00:01:16.478Z,99056.19
2023-03-20T00:03:43.890Z,99052.34
2023-03-20T00:06:18.143Z,99061.47
2023-03-20T00:08:46.315Z,99056.47
2023-03-20T00:11:36.983Z,99056.00
2023-03-20T00:14:09.655Z,99062.56
2023-03-20T00:16:39.246Z,99061.59
2023-03-20T00:19:07.617Z,99063.25
2023-03-20T00:21:34.309Z,99066.94
2023-03-20T00:24:00.927Z,99066.78
2023-03-20T00:26:34.061Z,99062.63
2023-03-20T00:29:02.102Z,99066.78
2023-03-20T00:31:31.606Z,99067.41
2023-03-20T00:34:00.804Z,99068.69
2023-03-20T00:36:28.275Z,99068.88
2023-03-20T00:38:55.778Z,99068.69
2023-03-20T00:41:27.650Z,99068.34
2023-03-20T00:43:59.711Z,99057.22
2023-03-20T00:46:26.780Z,99065.22
2023-03-20T00:48:53.823Z,99069.00
2023-03-20T00:51:20.565Z,99073.16
2023-03-20T00:53:47.057Z,99069.19
2023-03-20T00:56:33.691Z,99072.97
2023-03-20T00:59:02.320Z,99076.47
2023-03-20T01:01:31.090Z,99083.25
2023-03-20T01:03:58.651Z,99083.44
2023-03-20T01:06:25.394Z,99090.97
2023-03-20T01:08:52.307Z,99086.00
2023-03-20T01:11:23.421Z,99090.50
2023-03-20T01:13:50.083Z,99090.84
2023-03-20T01:16:20.962Z,99090.84
2023-03-20T01:18:47.474Z,99095.66
2023-03-20T01:21:14.143Z,99098.19
2023-03-20T01:23:40.801Z,99090.41
2023-03-20T01:26:21.481Z,99101.88
2023-03-20T01:28:48.604Z,99102.88
2023-03-20T01:31:17.625Z,99107.38
2023-03-20T01:33:44.825Z,99098.53
2023-03-20T01:36:14.162Z,99101.88
2023-03-20T01:38:41.510Z,99103.00
2023-03-20T01:41:18.290Z,99105.19
2023-03-20T01:43:45.795Z,99102.19
2023-03-20T01:46:12.330Z,99105.84
2023-03-20T01:48:51.325Z,99106.69
2023-03-20T01:51:26.955Z,99112.34
2023-03-20T01:54:05.661Z,99111.69
2023-03-20T01:56:35.010Z,99113.69
2023-03-20T01:59:13.128Z,99108.72
2023-03-20T02:01:42.142Z,99112.53
2023-03-20T02:04:09.264Z,99105.22
2023-03-20T02:06:38.053Z,99115.72
2023-03-20T02:09:05.075Z,99126.06
2023-03-20T02:11:31.690Z,99120.91
2023-03-20T02:14:00.910Z,99131.91
2023-03-20T02:16:27.593Z,99123.44
2023-03-20T02:18:56.053Z,99135.88
2023-03-20T02:21:37.146Z,99126.44
2023-03-20T02:24:31.627Z,99128.09
2023-03-20T02:27:44.768Z,99130.22
2023-03-20T02:30:49.089Z,99124.41
2023-03-20T02:33:48.300Z,99132.75
2023-03-20T02:36:48.596Z,99138.25
2023-03-20T02:39:18.280Z,99141.19
2023-03-20T02:41:49.938Z,99143.19
2023-03-20T02:44:28.525Z,99148.00
2023-03-20T02:47:03.717Z,99146.16
2023-03-20T02:49:38.952Z,99147.00
2023-03-20T02:52:17.390Z,99152.50
2023-03-20T02:54:49.916Z,99143.19
2023-03-20T02:57:23.274Z,99147.53
2023-03-20T02:59:59.727Z,99150.00
2023-03-20T03:02:39.803Z,99143.38
2023-03-20T03:05:22.605Z,99145.34
2023-03-20T03:07:52.399Z,99156.19
2023-03-20T03:10:24.953Z,99149.19
2023-03-20T03:12:53.921Z,99147.38
2023-03-20T03:15:30.162Z,99147.53
2023-03-20T03:17:59.626Z,99150.38
2023-03-20T03:20:31.168Z,99150.38
2023-03-20T03:22:57.781Z,99152.84
2023-03-20T03:25:27.083Z,99156.81
2023-03-20T03:28:27.658Z,99152.66
2023-03-20T03:30:56.133Z,99158.03
2023-03-20T03:33:28.159Z,99161.50
2023-03-20T03:36:11.046Z,99166.81
2023-03-20T03:38:49.039Z,99173.13
2023-03-20T03:41:25.083Z,99180.13
2023-03-20T03:44:23.690Z,99188.75
2023-03-20T03:46:59.939Z,99178.28
2023-03-20T03:49:31.039Z,99189.41
2023-03-20T03:52:10.348Z,99197.38
2023-03-20T03:54:46.783Z,99213.19
2023-03-20T03:57:17.925Z,99214.03
2023-03-20T03:59:50.339Z,99217.84
2023-03-20T04:02:20.570Z,99223.50
2023-03-20T04:04:50.933Z,99222.28
2023-03-20T04:07:17.493Z,99232.78
2023-03-20T04:09:44.863Z,99232.94
2023-03-20T04:12:32.807Z,99230.28
2023-03-20T04:15:01.682Z,99234.78
2023-03-20T04:17:29.332Z,99233.78
2023-03-20T04:19:55.752Z,99240.25
2023-03-20T04:22:22.801Z,99244.41
2023-03-20T04:24:49.364Z,99253.19
2023-03-20T04:27:16.158Z,99252.22
2023-03-20T04:29:43.443Z,99255.53
2023-03-20T04:32:10.468Z,99256.53
2023-03-20T04:34:37.022Z,99266.34
2023-03-20T04:37:03.507Z,99262.38
2023-03-20T04:39:30.013Z,99265.19
2023-03-20T04:41:56.547Z,99268.19
2023-03-20T04:44:23.129Z,99276.84
2023-03-20T04:46:49.656Z,99278.16
2023-03-20T04:49:16.283Z,99285.31
2023-03-20T04:51:42.958Z,99300.47
2023-03-20T04:54:09.481Z,99300.78
2023-03-20T04:56:36.003Z,99299.13
2023-03-20T04:59:03.120Z,99300.31
2023-03-20T05:01:29.712Z,99301.47
2023-03-20T05:03:56.343Z,99290.97
2023-03-20T05:06:22.829Z,99299.78
2023-03-20T05:08:49.256Z,99297.78
2023-03-20T05:11:15.774Z,99306.59
2023-03-20T05:13:42.273Z,99298.47
2023-03-20T05:16:08.876Z,99300.78
2023-03-20T05:18:35.374Z,99306.78
2023-03-20T05:21:01.893Z,99310.44
2023-03-20T05:23:29.093Z,99319.56
2023-03-20T05:25:55.684Z,99326.38
2023-03-20T05:28:22.399Z,99325.91
2023-03-20T05:30:48.845Z,99346.31
2023-03-20T05:33:15.544Z,99355.31
2023-03-20T05:35:43.240Z,99372.13
2023-03-20T05:38:09.625Z,99389.59
2023-03-20T05:40:36.475Z,99390.56
2023-03-20T05:43:02.999Z,99396.56
2023-03-20T05:45:29.598Z,99410.19
2023-03-20T05:47:56.195Z,99408.56
2023-03-20T05:50:22.864Z,99405.69
2023-03-20T05:52:50.053Z,99414.38
2023-03-20T05:55:16.636Z,99415.53
2023-03-20T05:57:43.346Z,99410.53
2023-03-20T06:00:10.770Z,99414.84
2023-03-20T06:02:37.914Z,99420.19
2023-03-20T06:05:04.700Z,99427.31
2023-03-20T06:07:31.140Z,99445.63
2023-03-20T06:09:57.544Z,99447.78
2023-03-20T06:12:24.103Z,99465.09
2023-03-20T06:14:50.866Z,99472.75
2023-03-20T06:17:17.325Z,99480.56
2023-03-20T06:19:43.706Z,99499.19
2023-03-20T06:22:10.448Z,99499.00
2023-03-20T06:24:39.573Z,99499.34
2023-03-20T06:27:06.105Z,99502.69
2023-03-20T06:29:32.709Z,99506.84
2023-03-20T06:31:59.489Z,99501.34
2023-03-20T06:34:26.222Z,99499.38
2023-03-20T06:36:52.716Z,99500.38
2023-03-20T06:39:19.134Z,99514.66
2023-03-20T06:41:45.547Z,99549.13
2023-03-20T06:44:12.027Z,99564.28
2023-03-20T06:46:38.669Z,99589.78
2023-03-20T06:49:05.216Z,99614.28
2023-03-20T06:51:31.598Z,99619.59
2023-03-20T06:53:58.005Z,99624.25
2023-03-20T06:56:24.503Z,99638.91
2023-03-20T06:58:51.223Z,99641.22
2023-03-20T07:01:17.938Z,99650.88
2023-03-20T07:03:44.820Z,99654.88
2023-03-20T07:06:11.252Z,99666.22
2023-03-20T07:08:38.296Z,99660.88
2023-03-20T07:11:04.875Z,99666.19
2023-03-20T07:13:31.886Z,99656.84
2023-03-20T07:16:04.485Z,99659.53
2023-03-20T07:18:31.433Z,99654.63
2023-03-20T07:21:01.580Z,99662.59
2023-03-20T07:23:28.895Z,99659.72
2023-03-20T07:25:56.427Z,99646.06
2023-03-20T07:28:22.915Z,99636.03
2023-03-20T07:30:49.708Z,99669.81
2023-03-20T07:33:16.602Z,99690.03
2023-03-20T07:35:43.525Z,99696.28
2023-03-20T07:38:10.109Z,99732.78
2023-03-20T07:40:36.744Z,99731.06
2023-03-20T07:43:03.483Z,99723.59
2023-03-20T07:45:35.784Z,99741.34
2023-03-20T07:48:02.475Z,99733.31
2023-03-20T07:50:29.041Z,99706.72
2023-03-20T07:52:55.821Z,99717.75
2023-03-20T07:55:22.327Z,99736.69
2023-03-20T07:57:50.620Z,99642.03
2023-03-20T08:00:18.173Z,99614.88
2023-03-20T08:02:45.104Z,99616.25
2023-03-20T08:05:12.131Z,99576.53
2023-03-20T08:07:38.601Z,99556.53
2023-03-20T08:10:05.807Z,99553.94
2023-03-20T08:12:32.233Z,99570.25
2023-03-20T08:14:58.695Z,99594.31
2023-03-20T08:17:27.807Z,99599.44
2023-03-20T08:19:54.543Z,99585.66
2023-03-20T08:22:21.051Z,99565.09
2023-03-20T08:24:47.639Z,99551.63
2023-03-20T08:27:14.464Z,99516.53
2023-03-20T08:29:41.331Z,99469.94
2023-03-20T08:32:08.190Z,99443.44
2023-03-20T08:34:34.867Z,99443.13
2023-03-20T08:37:03.778Z,99484.59
2023-03-20T08:39:30.718Z,99432.44
2023-03-20T08:41:58.894Z,99410.19
2023-03-20T08:44:26.139Z,99431.19
2023-03-20T08:46:52.556Z,99416.47
2023-03-20T08:49:19.086Z,99379.31
2023-03-20T08:51:45.763Z,99358.09
2023-03-20T08:54:12.538Z,99368.16
2023-03-20T08:56:39.042Z,99372.03
2023-03-20T08:59:05.628Z,99333.44
2023-03-20T09:01:48.014Z,99338.13
2023-03-20T09:04:15.937Z,99324.44
2023-03-20T09:06:42.840Z,99318.97
2023-03-20T09:09:09.693Z,99314.81
2023-03-20T09:11:36.313Z,99320.06
2023-03-20T09:14:02.833Z,99348.44
2023-03-20T09:16:29.476Z,99350.03
2023-03-20T09:18:57.079Z,99319.16
2023-03-20T09:21:23.850Z,99307.50
2023-03-20T09:23:50.503Z,99263.63
2023-03-20T09:26:17.038Z,99252.75
2023-03-20T09:28:43.732Z,99248.19
2023-03-20T09:31:10.180Z,99247.78
2023-03-20T09:33:36.757Z,99236.88
2023-03-20T09:36:03.789Z,99219.94
2023-03-20T09:38:30.275Z,99217.88
2023-03-20T09:41:00.126Z,99221.56
2023-03-20T09:43:44.912Z,99211.66
2023-03-20T09:46:17.971Z,99205.88
2023-03-20T09:49:12.601Z,99184.00
2023-03-20T09:52:04.094Z,99169.56
2023-03-20T09:54:52.592Z,99170.78
2023-03-20T09:57:28.253Z,99169.94
2023-03-20T10:00:02.653Z,99175.53
2023-03-20T10:02:45.297Z,99165.88
2023-03-20T10:05:36.472Z,99176.34
2023-03-20T10:08:05.373Z,99176.56
2023-03-20T10:10:53.629Z,99174.69
2023-03-20T10:13:48.241Z,99178.38
2023-03-20T10:16:17.871Z,99190.16
2023-03-20T10:18:56.960Z,99186.44
2023-03-20T10:21:32.555Z,99188.72
2023-03-20T10:23:59.001Z,99183.75
2023-03-20T10:26:27.063Z,99186.19
2023-03-20T10:28:58.504Z,99196.44
2023-03-20T10:31:50.576Z,99195.44
2023-03-20T10:34:54.831Z,99198.03
2023-03-20T10:37:54.855Z,99188.97
2023-03-20T10:40:29.176Z,99201.28
2023-03-20T10:43:28.367Z,99217.75
2023-03-20T10:46:36.317Z,99217.25
2023-03-20T10:49:07.363Z,99207.72
2023-03-20T10:51:48.526Z,99201.13
2023-03-20T10:54:28.811Z,99212.72
2023-03-20T10:56:59.171Z,99195.00
2023-03-20T10:59:32.845Z,99186.28
2023-03-20T11:01:59.474Z,99181.38
2023-03-20T11:04:26.217Z,99182.25
2023-03-20T11:07:06.651Z,99163.25
2023-03-20T11:09:33.080Z,99172.56
2023-03-20T11:12:02.938Z,99161.22
2023-03-20T11:14:35.403Z,99164.34
2023-03-20T11:17:03.942Z,99160.84
2023-03-20T11:19:36.503Z,99152.19
2023-03-20T11:22:21.497Z,99146.44
2023-03-20T11:25:01.280Z,99144.97
2023-03-20T11:27:32.969Z,99147.06
2023-03-20T11:30:04.528Z,99143.75
2023-03-20T11:32:33.449Z,99147.63
2023-03-20T11:35:18.373Z,99136.91
2023-03-20T11:37:48.498Z,99134.06
2023-03-20T11:40:32.396Z,99134.84
2023-03-20T11:43:01.641Z,99145.59
2023-03-20T11:45:46.139Z,99146.00
2023-03-20T11:48:21.514Z,99144.16
2023-03-20T11:51:03.453Z,99146.41
2023-03-20T11:53:40.443Z,99137.75
2023-03-20T11:56:23.869Z,99135.91
2023-03-20T11:59:00.167Z,99134.88
2023-03-20T12:01:28.678Z,99132.19
2023-03-20T12:03:55.267Z,99123.72
2023-03-20T12:06:25.170Z,99122.47
2023-03-20T12:09:35.011Z,99125.97
2023-03-20T12:12:09.118Z,99125.78
2023-03-20T12:15:12.521Z,99124.13
2023-03-20T12:17:47.095Z,99117.31
2023-03-20T12:20:44.658Z,99146.38
2023-03-20T12:23:22.061Z,99198.44
2023-03-20T12:26:11.224Z,99208.94
2023-03-20T12:28:46.722Z,99201.59
2023-03-20T12:31:25.155Z,99185.75
2023-03-20T12:34:03.448Z,99190.31
2023-03-20T12:36:36.126Z,99194.03
2023-03-20T12:39:05.453Z,99197.09
2023-03-20T12:42:05.750Z,99189.72
2023-03-20T12:44:51.306Z,99169.97
2023-03-20T12:47:38.745Z,99156.34
2023-03-20T12:50:28.222Z,99127.16
2023-03-20T12:53:05.311Z,99117.81
2023-03-20T12:55:43.609Z,99107.97
2023-03-20T12:58:46.732Z,99107.41
2023-03-20T13:01:20.299Z,99091.47
2023-03-20T13:04:18.160Z,99080.56
2023-03-20T13:07:00.161Z,99070.28
2023-03-20T13:09:44.817Z,99074.81
2023-03-20T13:12:35.921Z,99077.03
2023-03-20T13:15:16.382Z,99079.59
2023-03-20T13:17:59.853Z,99070.72
2023-03-20T13:20:36.642Z,99073.34
2023-03-20T13:23:08.928Z,99063.00
2023-03-20T13:25:55.539Z,99060.53
2023-03-20T13:29:00.122Z,99058.75
2023-03-20T13:31:49.774Z,99058.22
2023-03-20T13:34:54.111Z,99061.84
2023-03-20T13:37:33.100Z,99054.97
2023-03-20T13:40:11.676Z,99052.75
2023-03-20T13:43:14.041Z,99056.47
2023-03-20T13:45:42.879Z,99048.06
2023-03-20T13:48:21.649Z,99056.53
2023-03-20T13:51:25.491Z,99041.97
2023-03-20T13:54:13.303Z,99047.84
2023-03-20T13:56:53.539Z,99033.44
2023-03-20T13:59:42.400Z,99035.88
2023-03-20T14:02:22.714Z,99028.88
2023-03-20T14:05:03.438Z,99027.09
2023-03-20T14:07:34.069Z,99028.81
2023-03-20T14:10:19.341Z,99022.94
2023-03-20T14:12:49.191Z,99021.88
2023-03-20T14:15:16.054Z,99024.13
2023-03-20T14:17:47.860Z,99015.59
2023-03-20T14:20:29.576Z,99011.38
2023-03-20T14:22:57.643Z,99016.09
2023-03-20T14:25:25.002Z,99014.13
2023-03-20T14:28:00.930Z,99017.47
2023-03-20T14:30:30.293Z,99019.38
2023-03-20T14:33:06.057Z,99011.59
2023-03-20T14:36:10.142Z,99016.16
2023-03-20T14:39:06.254Z,99018.84
2023-03-20T14:41:47.677Z,99020.97
2023-03-20T14:44:30.684Z,99030.91
2023-03-20T14:47:25.191Z,99014.78
2023-03-20T14:49:57.923Z,99014.72
2023-03-20T14:52:35.638Z,99016.06
2023-03-20T14:55:47.225Z,99011.25
2023-03-20T14:58:39.902Z,99010.47
2023-03-20T15:01:09.824Z,99009.84
2023-03-20T15:03:40.613Z,99011.78
2023-03-20T15:06:09.161Z,99003.50
2023-03-20T15:08:44.291Z,99008.31
2023-03-20T15:11:13.916Z,99002.34
2023-03-20T15:13:41.614Z,99008.09
2023-03-20T15:16:12.932Z,99004.38
2023-03-20T15:18:45.538Z,99008.53
2023-03-20T15:21:17.380Z,99004.19
2023-03-20T15:23:48.190Z,99006.47
2023-03-20T15:26:16.662Z,99003.16
2023-03-20T15:28:45.376Z,99003.53
2023-03-20T15:31:39.007Z,99008.25
2023-03-20T15:34:12.896Z,99003.94
2023-03-20T15:36:40.912Z,98997.13
2023-03-20T15:39:17.815Z,99001.78
2023-03-20T15:41:47.466Z,98994.63
2023-03-20T15:44:19.556Z,98995.69
2023-03-20T15:47:18.004Z,98997.00
2023-03-20T15:49:50.751Z,99010.19
2023-03-20T15:52:26.178Z,99006.69
2023-03-20T15:54:53.098Z,98999.31
2023-03-20T15:57:24.427Z,99009.41
2023-03-20T15:59:51.036Z,99007.16
2023-03-20T16:02:18.096Z,99013.13
2023-03-20T16:04:49.325Z,99009.03
2023-03-20T16:07:26.938Z,99008.84
2023-03-20T16:09:54.045Z,99006.97
2023-03-20T16:12:20.961Z,99015.63
2023-03-20T16:14:51.306Z,99023.06
2023-03-20T16:17:20.097Z,99007.16
2023-03-20T16:19:46.723Z,99014.81
2023-03-20T16:22:24.999Z,99008.41
2023-03-20T16:24:55.921Z,99001.00
2023-03-20T16:27:32.539Z,99002.44
2023-03-20T16:30:00.146Z,99008.00
2023-03-20T16:32:39.569Z,99005.97
2023-03-20T16:35:16.659Z,98998.75
2023-03-20T16:37:49.381Z,99012.31
2023-03-20T16:40:35.969Z,99003.47
2023-03-20T16:43:18.526Z,99007.00
2023-03-20T16:45:49.705Z,99004.72
2023-03-20T16:48:16.548Z,99002.25
2023-03-20T16:50:45.336Z,99001.44
2023-03-20T16:53:15.135Z,98993.78
2023-03-20T16:55:47.635Z,98996.25
2023-03-20T16:58:23.196Z,98997.91
2023-03-20T17:00:59.741Z,99002.44
2023-03-20T17:03:35.375Z,98998.31
2023-03-20T17:06:28.037Z,98998.72
2023-03-20T17:09:09.039Z,98991.72
2023-03-20T17:11:39.013Z,98991.31
2023-03-20T17:14:06.178Z,98999.53
2023-03-20T17:16:33.222Z,98993.94
2023-03-20T17:19:06.400Z,98996.44
2023-03-20T17:21:33.786Z,99001.09
2023-03-20T17:24:00.365Z,99006.22
2023-03-20T17:26:26.900Z,98996.34
2023-03-20T17:28:54.708Z,98993.88
2023-03-20T17:31:21.369Z,98997.78
2023-03-20T17:33:47.894Z,99004.34
2023-03-20T17:36:23.012Z,98995.25
2023-03-20T17:38:49.616Z,98999.56
2023-03-20T17:41:18.898Z,99013.56
2023-03-20T17:43:46.276Z,99013.53
2023-03-20T17:46:21.015Z,99025.66
2023-03-20T17:48:49.000Z,99014.97
2023-03-20T17:51:15.463Z,99010.41
2023-03-20T17:53:41.890Z,99027.00
2023-03-20T17:56:16.635Z,99027.56
2023-03-20T17:58:43.186Z,99035.13
2023-03-20T18:01:09.702Z,99033.22
2023-03-20T18:03:36.656Z,99033.63
2023-03-20T18:06:04.498Z,99032.97
2023-03-20T18:08:30.995Z,99038.28
2023-03-20T18:10:57.883Z,99057.19
2023-03-20T18:13:26.561Z,99056.38
2023-03-20T18:15:57.021Z,99057.59
2023-03-20T18:18:24.248Z,99074.84
2023-03-20T18:20:51.131Z,99078.53
2023-03-20T18:23:17.812Z,99081.16
2023-03-20T18:25:44.415Z,99084.41
2023-03-20T18:28:14.050Z,99089.31
2023-03-20T18:30:41.750Z,99087.47
2023-03-20T18:33:08.696Z,99088.47
2023-03-20T18:35:36.302Z,99090.94
2023-03-20T18:38:03.900Z,99090.50
2023-03-20T18:40:33.259Z,99097.88
2023-03-20T18:43:00.238Z,99105.28
2023-03-20T18:45:29.007Z,99101.78
2023-03-20T18:47:57.087Z,99092.16
2023-03-20T18:50:37.347Z,99089.94
2023-03-20T18:53:06.190Z,99084.84
2023-03-20T18:55:33.758Z,99089.19
2023-03-20T18:58:00.713Z,99089.19
2023-03-20T19:00:45.496Z,99085.88
2023-03-20T19:03:13.725Z,99095.91
2023-03-20T19:05:40.327Z,99094.44
2023-03-20T19:08:06.845Z,99085.59
2023-03-20T19:10:37.988Z,99097.72
2023-03-20T19:13:06.843Z,99103.22
2023-03-20T19:15:35.727Z,99112.47
2023-03-20T19:18:04.437Z,99112.28
2023-03-20T19:20:43.971Z,99116.78
2023-03-20T19:23:12.692Z,99120.69
2023-03-20T19:25:40.387Z,99115.31
2023-03-20T19:28:21.615Z,99123.00
2023-03-20T19:30:48.859Z,99145.16
2023-03-20T19:33:15.766Z,99134.19
2023-03-20T19:36:11.587Z,99137.78
2023-03-20T19:38:29.183Z,99147.09
2023-03-20T19:40:56.053Z,99139.91
2023-03-20T19:43:22.979Z,99134.56
2023-03-20T19:45:51.014Z,99155.28
2023-03-20T19:48:20.420Z,99155.94
2023-03-20T19:50:47.915Z,99155.56
2023-03-20T19:53:18.253Z,99138.53
2023-03-20T19:55:45.347Z,99149.78
2023-03-20T19:58:13.213Z,99150.59
2023-03-20T20:00:58.486Z,99127.53
2023-03-20T20:03:26.630Z,99149.66
2023-03-20T20:05:53.852Z,99148.03
2023-03-20T20:08:33.345Z,99139.41
2023-03-20T20:11:06.035Z,99161.50
2023-03-20T20:13:47.155Z,99159.38
2023-03-20T20:16:22.569Z,99170.63
2023-03-20T20:18:49.051Z,99170.53
2023-03-20T20:24:01.875Z,99193.47
2023-03-20T20:26:31.400Z,99208.00
2023-03-20T20:29:01.902Z,99222.25
2023-03-20T20:31:29.816Z,99248.34
2023-03-20T20:34:36.761Z,99273.09
2023-03-20T20:37:34.845Z,99300.84
2023-03-20T20:39:29.609Z,99304.25
2023-03-20T20:41:56.063Z,99298.50
2023-03-20T20:44:22.509Z,99297.00
2023-03-20T20:46:48.920Z,99280.19
2023-03-20T20:49:19.476Z,99279.41
2023-03-20T20:51:46.671Z,99270.78
2023-03-20T20:54:13.179Z,99299.16
2023-03-20T20:56:40.016Z,99312.00
2023-03-20T20:59:06.898Z,99315.16
2023-03-20T21:01:34.874Z,99307.97
2023-03-20T21:04:01.989Z,99311.50
2023-03-20T21:06:57.811Z,99310.00
2023-03-20T21:09:15.229Z,99308.22
2023-03-20T21:11:41.865Z,99310.59
2023-03-20T21:14:08.340Z,99317.13
2023-03-20T21:16:34.872Z,99337.97
2023-03-20T21:19:01.600Z,99340.16
2023-03-20T21:21:28.171Z,99337.66
2023-03-20T21:23:55.390Z,99371.00
2023-03-20T21:26:21.867Z,99384.00
2023-03-20T21:28:48.223Z,99386.69
2023-03-20T21:31:29.398Z,99384.38
2023-03-20T21:33:57.377Z,99380.72
2023-03-20T21:36:24.178Z,99376.03
2023-03-20T21:39:07.226Z,99370.41
2023-03-20T21:41:34.937Z,99380.53
2023-03-20T21:44:01.620Z,99383.88
2023-03-20T22:03:11.517Z,99515.69
2023-03-20T22:06:37.281Z,99521.69
2023-03-20T22:20:18.402Z,99510.00
2023-03-20T22:23:15.338Z,99491.69
2023-03-20T22:28:33.308Z,99542.81
2023-03-20T22:34:25.635Z,99570.97
2023-03-20T22:37:11.283Z,99589.97
2023-03-20T22:39:34.087Z,99590.63
2023-03-20T22:44:59.887Z,99599.91
2023-03-20T22:47:19.989Z,99608.38
2023-03-20T22:49:46.564Z,99627.50
2023-03-20T22:52:26.661Z,99636.50
2023-03-20T22:54:55.751Z,99634.16
2023-03-20T22:57:26.589Z,99634.81
2023-03-20T23:00:01.243Z,99637.47
2023-03-20T23:02:27.790Z,99628.16
2023-03-20T23:04:54.222Z,99629.03
2023-03-20T23:07:20.742Z,99624.53
2023-03-20T23:09:47.891Z,99617.84
2023-03-20T23:12:14.378Z,99628.00
2023-03-20T23:14:45.775Z,99626.34
2023-03-20T23:17:12.692Z,99636.16
2023-03-20T23:19:48.827Z,99637.47
2023-03-20T23:22:18.416Z,99629.28
2023-03-20T23:24:44.896Z,99639.09
2023-03-20T23:27:11.412Z,99639.78
2023-03-20T23:29:38.091Z,99638.63
2023-03-20T23:32:04.871Z,99630.47
2023-03-20T23:34:31.360Z,99635.16
2023-03-20T23:36:58.152Z,99636.13
2023-03-20T23:39:24.638Z,99627.28
2023-03-20T23:42:09.938Z,99628.13
2023-03-20T23:44:44.109Z,99624.28
2023-03-20T23:47:20.757Z,99624.41
2023-03-20T23:49:47.909Z,99629.41
2023-03-20T23:52:14.943Z,99636.56
2023-03-20T23:54:41.821Z,99625.41
2023-03-20T23:57:08.164Z,99631.06
2023-03-20T23:59:34.946Z,99633.25
